Time;durP1;ratioP1;P1;durP2;ratioP2;P2;SDS_P1;SDS_P2;PMS_P1;PMS_P2;Temp;Humidity;BMP_temperature;BMP_pressure;BME280_temperature;BME280_humidity;BME280_pressure;Samples;Min_cycle;Max_cycle;Signal;HPM_P1;HPM_P2
2023/07/06 00:02:12;;;;;;;5.47;3.47;;;;;;;;;;10333471;28;20509;-59
2023/07/06 00:07:10;;;;;;;8.73;3.50;;;;;;;;;;10330943;28;20083;-58
2023/07/06 00:12:09;;;;;;;6.93;2.90;;;;;;;;;;10336338;28;20083;-57
2023/07/06 00:17:11;;;;;;;3.85;3.13;;;;;;;;;;10339273;28;20070;-57
2023/07/06 00:22:10;;;;;;;5.55;3.28;;;;;;;;;;10340711;28;20068;-57
2023/07/06 00:27:09;;;;;;;5.15;2.90;;;;;;;;;;10339179;28;20075;-55
2023/07/06 00:32:26;;;;;;;4.55;3.78;;;;;;;;;;10329320;28;20075;-57
2023/07/06 00:37:25;;;;;;;4.75;4.15;;;;;;;;;;10334024;28;20051;-57
2023/07/06 00:42:23;;;;;;;7.95;4.18;;;;;;;;;;10338504;28;20079;-57
2023/07/06 00:47:30;;;;;;;9.77;5.30;;;;;;;;;;10339969;28;20091;-57
2023/07/06 00:52:29;;;;;;;10.88;4.82;;;;;;;;;;10344490;28;20071;-57
2023/07/06 00:57:27;;;;;;;5.95;4.45;;;;;;;;;;10337316;28;20520;-57
2023/07/06 01:02:28;;;;;;;8.07;4.43;;;;;;;;;;10319015;28;20076;-57
2023/07/06 01:07:27;;;;;;;7.50;5.10;;;;;;;;;;10334799;28;20513;-57
2023/07/06 01:12:25;;;;;;;3.65;2.85;;;;;;;;;;10338530;28;20064;-55
2023/07/06 01:17:25;;;;;;;5.95;3.03;;;;;;;;;;10341932;28;20064;-57
2023/07/06 01:22:30;;;;;;;7.10;3.08;;;;;;;;;;10337813;28;20072;-54
2023/07/06 01:27:42;;;;;;;7.43;3.13;;;;;;;;;;10338657;28;20086;-56
2023/07/06 01:32:44;;;;;;;4.10;3.00;;;;;;;;;;10320257;28;20071;-55
2023/07/06 01:37:43;;;;;;;2.72;2.50;;;;;;;;;;10337066;28;20505;-57
2023/07/06 01:42:42;;;;;;;3.28;2.70;;;;;;;;;;10335407;28;20064;-56
2023/07/06 01:47:44;;;;;;;3.13;1.75;;;;;;;;;;10336716;28;20845;-56
2023/07/06 01:52:51;;;;;;;2.92;2.08;;;;;;;;;;10316688;28;20084;-56
2023/07/06 01:57:51;;;;;;;5.40;1.95;;;;;;;;;;10327932;28;20076;-55
2023/07/06 02:03:01;;;;;;;3.67;2.25;;;;;;;;;;10317616;28;20048;-56
2023/07/06 02:08:00;;;;;;;4.15;2.65;;;;;;;;;;10316533;28;20086;-57
2023/07/06 02:12:58;;;;;;;4.78;2.47;;;;;;;;;;10315572;28;20076;-57
2023/07/06 02:17:56;;;;;;;3.53;2.38;;;;;;;;;;10337981;28;20430;-58
2023/07/06 02:22:56;;;;;;;3.85;2.22;;;;;;;;;;10337696;28;20071;-55
2023/07/06 02:27:54;;;;;;;2.65;2.45;;;;;;;;;;10333221;28;20087;-56
2023/07/06 02:32:53;;;;;;;4.18;2.30;;;;;;;;;;10334913;28;20086;-57
2023/07/06 02:37:52;;;;;;;5.88;2.65;;;;;;;;;;10331635;28;20056;-58
2023/07/06 02:42:52;;;;;;;2.85;2.25;;;;;;;;;;10316077;28;20078;-57
2023/07/06 02:47:50;;;;;;;4.28;2.42;;;;;;;;;;10333674;28;20087;-56
2023/07/06 02:52:49;;;;;;;2.75;2.55;;;;;;;;;;10313816;28;20064;-56
2023/07/06 02:57:47;;;;;;;3.90;2.67;;;;;;;;;;10337679;28;20075;-56
2023/07/06 03:02:48;;;;;;;2.92;2.63;;;;;;;;;;10315381;28;20094;-55
2023/07/06 03:07:46;;;;;;;10.70;3.08;;;;;;;;;;10332787;28;20079;-57
2023/07/06 03:12:44;;;;;;;4.03;3.20;;;;;;;;;;10336780;28;20087;-56
2023/07/06 03:17:48;;;;;;;6.00;2.80;;;;;;;;;;10323733;28;20084;-55
2023/07/06 03:22:48;;;;;;;4.25;3.17;;;;;;;;;;10318834;28;20045;-56
2023/07/06 03:27:47;;;;;;;7.28;3.00;;;;;;;;;;10335466;28;20079;-55
2023/07/06 03:32:45;;;;;;;4.65;2.70;;;;;;;;;;10334902;28;20504;-55
2023/07/06 03:37:45;;;;;;;4.95;3.35;;;;;;;;;;10313033;28;20048;-57
2023/07/06 03:42:46;;;;;;;5.70;4.03;;;;;;;;;;10333961;28;20068;-58
2023/07/06 03:47:45;;;;;;;7.82;3.45;;;;;;;;;;10344323;28;20083;-57
2023/07/06 03:52:44;;;;;;;3.60;3.30;;;;;;;;;;10342100;28;20091;-56
2023/07/06 03:57:45;;;;;;;5.15;3.55;;;;;;;;;;10338628;28;20079;-57
2023/07/06 04:03:03;;;;;;;6.05;3.67;;;;;;;;;;10341074;28;20083;-57
2023/07/06 04:08:03;;;;;;;9.73;4.80;;;;;;;;;;10339857;28;20067;-57
2023/07/06 04:13:02;;;;;;;4.15;3.42;;;;;;;;;;10338960;28;20071;-57
2023/07/06 04:18:03;;;;;;;4.35;3.88;;;;;;;;;;10337405;28;20483;-57
2023/07/06 04:23:02;;;;;;;5.55;3.67;;;;;;;;;;10337304;28;20501;-54
2023/07/06 04:28:02;;;;;;;5.55;4.05;;;;;;;;;;10316139;28;20069;-54
2023/07/06 04:33:03;;;;;;;4.68;3.88;;;;;;;;;;10342713;28;20450;-56
2023/07/06 04:38:03;;;;;;;10.02;3.35;;;;;;;;;;10338819;28;20067;-56
2023/07/06 04:43:01;;;;;;;6.95;3.85;;;;;;;;;;10337914;28;20083;-57
2023/07/06 04:48:00;;;;;;;4.60;4.20;;;;;;;;;;10335377;28;20075;-56
2023/07/06 04:53:01;;;;;;;5.80;3.65;;;;;;;;;;10343160;28;20059;-56
2023/07/06 04:58:00;;;;;;;7.32;4.45;;;;;;;;;;10338620;28;20078;-56
2023/07/06 05:03:00;;;;;;;4.00;3.17;;;;;;;;;;10336777;28;20081;-57
2023/07/06 05:08:00;;;;;;;7.35;3.80;;;;;;;;;;10340924;28;20818;-57
2023/07/06 05:12:58;;;;;;;8.45;3.28;;;;;;;;;;10337073;28;20087;-54
2023/07/06 05:17:57;;;;;;;5.85;3.83;;;;;;;;;;10337869;28;20072;-57
2023/07/06 05:22:55;;;;;;;6.97;3.50;;;;;;;;;;10333670;28;20529;-56
2023/07/06 05:27:55;;;;;;;4.82;3.60;;;;;;;;;;10337338;28;20072;-57
2023/07/06 05:32:53;;;;;;;8.68;3.97;;;;;;;;;;10340687;28;20083;-56
2023/07/06 05:37:51;;;;;;;4.65;4.13;;;;;;;;;;10333422;28;20080;-57
2023/07/06 05:42:50;;;;;;;6.30;4.15;;;;;;;;;;10330873;28;20544;-56
2023/07/06 05:47:49;;;;;;;5.68;5.18;;;;;;;;;;10329412;28;20095;-56
2023/07/06 05:52:48;;;;;;;4.95;4.00;;;;;;;;;;10331902;28;20083;-53
2023/07/06 05:57:46;;;;;;;4.95;3.45;;;;;;;;;;10338131;28;20064;-56
2023/07/06 06:02:45;;;;;;;5.90;4.18;;;;;;;;;;10329941;28;20075;-55
2023/07/06 06:07:44;;;;;;;6.57;4.93;;;;;;;;;;10329332;28;20079;-57
2023/07/06 06:12:44;;;;;;;6.03;4.50;;;;;;;;;;10339261;28;20091;-57
2023/07/06 06:17:44;;;;;;;4.97;4.07;;;;;;;;;;10342659;28;20064;-57
2023/07/06 06:22:43;;;;;;;4.55;4.15;;;;;;;;;;10341207;28;20519;-57
2023/07/06 06:27:43;;;;;;;7.30;4.68;;;;;;;;;;10335831;28;20509;-56
2023/07/06 06:32:41;;;;;;;4.53;4.07;;;;;;;;;;10342085;28;20514;-56
2023/07/06 06:37:39;;;;;;;6.68;4.53;;;;;;;;;;10340959;28;20067;-57
2023/07/06 06:42:39;;;;;;;8.90;4.90;;;;;;;;;;10341273;28;20064;-57
2023/07/06 06:47:39;;;;;;;5.13;4.25;;;;;;;;;;10326773;28;20071;-57
2023/07/06 06:52:37;;;;;;;8.45;4.95;;;;;;;;;;10329286;28;20080;-56
2023/07/06 06:57:35;;;;;;;12.50;10.38;;;;;;;;;;10327461;28;20074;-57
2023/07/06 07:02:33;;;;;;;7.22;4.28;;;;;;;;;;10322806;28;20070;-57
2023/07/06 07:07:35;;;;;;;4.80;4.30;;;;;;;;;;10327554;28;20075;-57
2023/07/06 07:12:33;;;;;;;6.63;4.43;;;;;;;;;;10327386;28;20067;-58
2023/07/06 07:17:31;;;;;;;5.88;4.53;;;;;;;;;;10327776;28;20477;-58
2023/07/06 07:22:29;;;;;;;5.10;4.32;;;;;;;;;;10327516;28;20103;-57
2023/07/06 07:27:29;;;;;;;6.35;4.50;;;;;;;;;;10327757;28;20524;-57
2023/07/06 07:32:29;;;;;;;8.68;4.88;;;;;;;;;;10330109;28;20072;-57
2023/07/06 07:37:28;;;;;;;5.57;5.00;;;;;;;;;;10330452;28;20068;-58
2023/07/06 07:42:26;;;;;;;9.40;4.82;;;;;;;;;;10329938;28;20079;-58
2023/07/06 07:47:27;;;;;;;8.23;4.90;;;;;;;;;;10327889;28;20091;-59
2023/07/06 07:52:27;;;;;;;5.30;4.80;;;;;;;;;;10328319;28;20075;-59
2023/07/06 07:57:26;;;;;;;11.57;4.97;;;;;;;;;;10327721;28;20091;-59
2023/07/06 08:02:25;;;;;;;5.28;4.35;;;;;;;;;;10331728;28;20139;-59
2023/07/06 08:07:25;;;;;;;13.05;5.63;;;;;;;;;;10328520;28;20079;-59
2023/07/06 08:12:23;;;;;;;8.15;5.10;;;;;;;;;;10328457;28;20087;-60
2023/07/06 08:17:21;;;;;;;5.50;4.80;;;;;;;;;;10330081;28;20072;-59
2023/07/06 08:22:22;;;;;;;8.10;5.07;;;;;;;;;;10329093;28;20068;-59
2023/07/06 08:27:21;;;;;;;7.43;4.07;;;;;;;;;;10328218;28;20094;-59
2023/07/06 08:32:21;;;;;;;8.05;4.28;;;;;;;;;;10330184;28;20066;-59
2023/07/06 08:37:22;;;;;;;5.95;4.50;;;;;;;;;;10331427;28;20076;-59
2023/07/06 08:42:21;;;;;;;7.53;5.03;;;;;;;;;;10336436;28;20064;-59
2023/07/06 08:47:20;;;;;;;5.60;4.10;;;;;;;;;;10337362;28;20547;-59
2023/07/06 08:52:19;;;;;;;4.97;4.13;;;;;;;;;;10336548;28;20071;-59
2023/07/06 08:57:21;;;;;;;12.38;4.97;;;;;;;;;;10328823;28;20072;-59
2023/07/06 09:02:20;;;;;;;6.47;4.10;;;;;;;;;;10326815;28;20079;-59
2023/07/06 09:07:21;;;;;;;4.97;3.92;;;;;;;;;;10330960;28;20397;-60
2023/07/06 09:12:24;;;;;;;8.98;4.60;;;;;;;;;;10329207;28;20072;-59
2023/07/06 09:17:23;;;;;;;;;;;;;;;;;;10334537;28;20078;-58
2023/07/06 09:22:23;;;;;;;5.72;3.92;;;;;;;;;;10330778;28;19964;-59
2023/07/06 09:27:26;;;;;;;4.78;3.78;;;;;;;;;;10331356;28;20064;-59
2023/07/06 09:32:25;;;;;;;5.43;3.85;;;;;;;;;;10331138;28;20072;-59
2023/07/06 09:37:24;;;;;;;4.32;3.83;;;;;;;;;;10333154;28;20505;-59
2023/07/06 09:42:29;;;;;;;6.10;4.27;;;;;;;;;;10333446;28;20080;-60
2023/07/06 09:47:28;;;;;;;5.20;3.50;;;;;;;;;;10332470;28;20087;-60
2023/07/06 09:52:27;;;;;;;3.83;3.20;;;;;;;;;;10334045;28;20080;-60
2023/07/06 09:57:26;;;;;;;8.48;4.00;;;;;;;;;;10332143;28;20503;-60
2023/07/06 10:02:29;;;;;;;5.95;3.50;;;;;;;;;;10332227;28;20154;-60
2023/07/06 10:07:31;;;;;;;4.10;3.70;;;;;;;;;;10334527;28;20521;-60
2023/07/06 10:12:38;;;;;;;8.73;4.05;;;;;;;;;;10332316;28;20420;-60
2023/07/06 10:17:38;;;;;;;5.10;3.55;;;;;;;;;;10333769;28;20071;-60
2023/07/06 10:22:41;;;;;;;4.75;4.22;;;;;;;;;;10332989;28;20562;-59
2023/07/06 10:27:39;;;;;;;;;;;;;;;;;;10331173;28;20717;-61
2023/07/06 10:32:41;;;;;;;5.75;3.17;;;;;;;;;;10332284;28;19932;-61
2023/07/06 10:37:41;;;;;;;5.28;2.83;;;;;;;;;;10331146;28;20071;-58
2023/07/06 10:42:43;;;;;;;4.72;2.83;;;;;;;;;;10334660;28;20078;-60
2023/07/06 10:47:44;;;;;;;5.10;3.25;;;;;;;;;;10333075;28;20084;-59
2023/07/06 10:52:43;;;;;;;9.93;3.30;;;;;;;;;;10332648;28;20485;-59
2023/07/06 10:57:44;;;;;;;5.15;4.00;;;;;;;;;;10330838;28;20075;-58
2023/07/06 11:02:46;;;;;;;4.70;2.95;;;;;;;;;;10331008;28;20075;-59
2023/07/06 11:07:45;;;;;;;3.97;3.58;;;;;;;;;;10329815;28;20072;-59
2023/07/06 11:12:51;;;;;;;4.72;3.88;;;;;;;;;;10331791;28;20086;-58
2023/07/06 11:17:52;;;;;;;5.38;3.30;;;;;;;;;;10331234;28;20098;-59
2023/07/06 11:22:54;;;;;;;6.65;3.88;;;;;;;;;;10331960;28;20087;-59
2023/07/06 11:27:56;;;;;;;10.57;3.55;;;;;;;;;;10330286;28;20075;-60
2023/07/06 11:33:01;;;;;;;5.15;3.70;;;;;;;;;;10330644;28;20469;-59
2023/07/06 11:38:05;;;;;;;7.03;3.50;;;;;;;;;;10331494;28;20075;-59
2023/07/06 11:43:08;;;;;;;7.95;3.78;;;;;;;;;;10330083;28;20063;-60
2023/07/06 11:48:14;;;;;;;9.30;4.32;;;;;;;;;;10329587;28;20496;-60
2023/07/06 11:53:29;;;;;;;6.45;3.65;;;;;;;;;;10331371;28;20072;-60
2023/07/06 11:58:43;;;;;;;8.90;4.30;;;;;;;;;;10330690;28;20064;-59
2023/07/06 12:03:44;;;;;;;4.55;3.67;;;;;;;;;;10334180;28;20068;-60
2023/07/06 12:08:42;;;;;;;10.55;4.10;;;;;;;;;;10333544;28;20071;-60
2023/07/06 12:13:42;;;;;;;8.20;4.95;;;;;;;;;;10340922;28;20067;-60
2023/07/06 12:18:41;;;;;;;6.82;4.00;;;;;;;;;;10332801;28;20072;-59
2023/07/06 12:23:41;;;;;;;4.82;4.30;;;;;;;;;;10334600;28;20078;-59
2023/07/06 12:28:39;;;;;;;7.47;4.78;;;;;;;;;;10336676;28;20076;-60
2023/07/06 12:33:37;;;;;;;7.05;4.57;;;;;;;;;;10334450;28;20502;-59
2023/07/06 12:38:36;;;;;;;7.85;4.70;;;;;;;;;;10339025;28;20074;-59
2023/07/06 12:43:35;;;;;;;4.95;4.45;;;;;;;;;;10339828;28;20067;-59
2023/07/06 12:48:34;;;;;;;6.22;5.25;;;;;;;;;;10338479;28;20079;-59
2023/07/06 12:53:33;;;;;;;10.93;5.57;;;;;;;;;;10336525;28;20071;-59
2023/07/06 12:58:34;;;;;;;10.38;5.47;;;;;;;;;;10341712;28;20584;-59
2023/07/06 13:03:45;;;;;;;6.68;5.85;;;;;;;;;;10337761;28;20079;-59
2023/07/06 13:08:44;;;;;;;8.82;6.28;;;;;;;;;;10338367;28;20071;-59
2023/07/06 13:13:43;;;;;;;10.95;6.88;;;;;;;;;;10338072;28;20075;-60
2023/07/06 13:18:42;;;;;;;7.53;6.55;;;;;;;;;;10337717;28;20059;-59
2023/07/06 13:23:42;;;;;;;10.02;7.00;;;;;;;;;;10329872;28;20067;-59
2023/07/06 13:28:40;;;;;;;8.65;6.47;;;;;;;;;;10330769;28;20075;-60
2023/07/06 13:33:40;;;;;;;6.20;5.60;;;;;;;;;;10335191;28;21473;-59
2023/07/06 13:38:39;;;;;;;11.35;6.32;;;;;;;;;;10338498;28;20445;-59
2023/07/06 13:43:38;;;;;;;7.07;5.82;;;;;;;;;;10335897;28;20078;-59
2023/07/06 13:48:37;;;;;;;10.07;6.00;;;;;;;;;;10332622;28;20083;-59
2023/07/06 13:53:36;;;;;;;6.60;5.57;;;;;;;;;;10338390;28;20071;-60
2023/07/06 13:58:36;;;;;;;35.35;18.92;;;;;;;;;;10337690;28;20077;-60
2023/07/06 14:03:35;;;;;;;10.88;6.82;;;;;;;;;;10331798;28;20078;-61
2023/07/06 14:08:33;;;;;;;11.73;5.28;;;;;;;;;;10333406;28;20099;-59
2023/07/06 14:13:32;;;;;;;11.75;5.05;;;;;;;;;;10331119;28;20094;-60
2023/07/06 14:18:32;;;;;;;6.32;4.55;;;;;;;;;;10340898;28;20453;-59
2023/07/06 14:23:31;;;;;;;6.97;4.70;;;;;;;;;;10344353;28;20078;-60
2023/07/06 14:28:30;;;;;;;9.90;4.93;;;;;;;;;;10336484;28;20061;-59
2023/07/06 14:33:40;;;;;;;11.02;5.05;;;;;;;;;;10330827;28;20063;-60
2023/07/06 14:38:38;;;;;;;10.38;4.60;;;;;;;;;;10344197;28;20102;-59
2023/07/06 14:43:37;;;;;;;11.68;4.35;;;;;;;;;;10336241;28;20060;-59
2023/07/06 14:48:35;;;;;;;8.23;3.45;;;;;;;;;;10337412;28;20178;-59
2023/07/06 14:53:36;;;;;;;7.85;4.20;;;;;;;;;;10332824;28;20482;-60
2023/07/06 14:58:34;;;;;;;7.68;3.03;;;;;;;;;;10339400;28;20528;-59
2023/07/06 15:03:33;;;;;;;15.73;3.63;;;;;;;;;;10336988;28;20095;-59
2023/07/06 15:08:31;;;;;;;14.15;2.97;;;;;;;;;;10337769;28;20067;-60
2023/07/06 15:13:31;;;;;;;9.65;2.90;;;;;;;;;;10344019;28;20064;-59
2023/07/06 15:18:30;;;;;;;7.43;2.30;;;;;;;;;;10342330;28;20079;-59
2023/07/06 15:23:29;;;;;;;7.10;2.70;;;;;;;;;;10326577;28;20083;-60
2023/07/06 15:28:27;;;;;;;8.40;2.80;;;;;;;;;;10334662;28;20536;-59
2023/07/06 15:33:27;;;;;;;5.75;2.95;;;;;;;;;;10338065;28;20067;-60
2023/07/06 15:38:26;;;;;;;6.82;3.10;;;;;;;;;;10332985;28;20082;-59
2023/07/06 15:43:24;;;;;;;4.25;2.55;;;;;;;;;;10337868;28;20075;-59
2023/07/06 15:48:23;;;;;;;8.90;3.25;;;;;;;;;;10340731;28;20094;-59
2023/07/06 15:53:22;;;;;;;11.48;2.92;;;;;;;;;;10343492;28;20489;-58
2023/07/06 15:58:21;;;;;;;4.80;3.15;;;;;;;;;;10337229;28;20063;-59
2023/07/06 16:03:19;;;;;;;6.53;3.53;;;;;;;;;;10338475;28;20076;-58
2023/07/06 16:08:17;;;;;;;6.47;2.38;;;;;;;;;;10346571;28;20087;-59
2023/07/06 16:13:20;;;;;;;7.63;3.13;;;;;;;;;;10341678;28;20091;-59
2023/07/06 16:18:19;;;;;;;3.17;2.20;;;;;;;;;;10345883;28;20457;-59
2023/07/06 16:23:17;;;;;;;2.55;2.20;;;;;;;;;;10342185;28;20075;-60
2023/07/06 16:28:18;;;;;;;5.57;2.22;;;;;;;;;;10337762;28;20072;-59
2023/07/06 16:33:18;;;;;;;8.05;4.50;;;;;;;;;;10336667;28;20078;-60
2023/07/06 16:38:16;;;;;;;3.65;2.40;;;;;;;;;;10338043;28;20076;-60
2023/07/06 16:43:16;;;;;;;3.95;2.53;;;;;;;;;;10337738;28;20075;-58
2023/07/06 16:48:15;;;;;;;4.78;2.60;;;;;;;;;;10345050;28;20185;-60
2023/07/06 16:53:14;;;;;;;9.50;3.53;;;;;;;;;;10340695;28;20079;-59
2023/07/06 16:58:12;;;;;;;7.65;3.97;;;;;;;;;;10337506;28;20736;-59
2023/07/06 17:03:11;;;;;;;12.32;5.32;;;;;;;;;;10336953;28;20064;-60
2023/07/06 17:08:09;;;;;;;6.57;2.63;;;;;;;;;;10332086;28;20067;-59
2023/07/06 17:13:09;;;;;;;10.88;4.57;;;;;;;;;;10335117;28;20068;-59
2023/07/06 17:18:07;;;;;;;4.18;3.17;;;;;;;;;;10334470;28;20064;-59
2023/07/06 17:23:05;;;;;;;4.13;3.10;;;;;;;;;;10335370;28;20064;-60
2023/07/06 17:28:03;;;;;;;10.80;4.43;;;;;;;;;;10335104;28;20075;-60
2023/07/06 17:33:03;;;;;;;5.10;3.67;;;;;;;;;;10333697;28;20480;-59
2023/07/06 17:38:01;;;;;;;7.50;3.90;;;;;;;;;;10335027;28;20562;-59
2023/07/06 17:42:59;;;;;;;12.90;3.92;;;;;;;;;;10338480;28;20068;-58
2023/07/06 17:47:58;;;;;;;12.60;5.35;;;;;;;;;;10340592;28;20072;-60
2023/07/06 17:52:57;;;;;;;7.43;5.63;;;;;;;;;;10339212;28;20079;-60
2023/07/06 17:57:55;;;;;;;11.20;5.30;;;;;;;;;;10339051;28;20109;-59
2023/07/06 18:02:54;;;;;;;10.55;8.30;;;;;;;;;;10347062;28;20071;-59
2023/07/06 18:07:53;;;;;;;9.45;4.63;;;;;;;;;;10337333;28;20450;-59
2023/07/06 18:12:53;;;;;;;12.18;5.35;;;;;;;;;;10335766;28;20756;-59
2023/07/06 18:17:51;;;;;;;11.05;6.50;;;;;;;;;;10333519;28;20079;-60
2023/07/06 18:22:49;;;;;;;10.70;5.57;;;;;;;;;;10333175;28;20454;-59
2023/07/06 18:27:48;;;;;;;8.80;4.97;;;;;;;;;;10337814;28;20068;-60
2023/07/06 18:32:47;;;;;;;7.85;4.53;;;;;;;;;;10316427;28;20075;-60
2023/07/06 18:37:45;;;;;;;3.72;3.17;;;;;;;;;;10334416;28;20079;-59
2023/07/06 18:42:44;;;;;;;5.15;4.10;;;;;;;;;;10315365;28;20075;-60
2023/07/06 18:47:43;;;;;;;7.30;5.80;;;;;;;;;;10331809;28;20591;-59
2023/07/06 18:52:42;;;;;;;8.75;4.60;;;;;;;;;;10315880;28;20490;-59
2023/07/06 18:57:40;;;;;;;7.47;4.60;;;;;;;;;;10337325;28;20072;-60
2023/07/06 19:02:39;;;;;;;8.43;4.47;;;;;;;;;;10330362;28;20083;-60
2023/07/06 19:07:38;;;;;;;11.10;4.13;;;;;;;;;;10333200;28;20064;-59
2023/07/06 19:12:54;;;;;;;6.78;5.53;;;;;;;;;;10331850;28;20075;-59
2023/07/06 19:17:52;;;;;;;7.75;4.75;;;;;;;;;;10329340;28;20118;-59
2023/07/06 19:22:51;;;;;;;7.57;5.03;;;;;;;;;;10328276;28;20080;-58
2023/07/06 19:27:49;;;;;;;8.38;4.90;;;;;;;;;;10312516;28;20098;-60
2023/07/06 19:32:49;;;;;;;7.82;4.57;;;;;;;;;;10330751;28;20138;-60
2023/07/06 19:37:47;;;;;;;9.77;5.20;;;;;;;;;;10338142;28;20067;-59
2023/07/06 19:42:45;;;;;;;7.40;5.75;;;;;;;;;;10340560;28;20097;-59
2023/07/06 19:47:43;;;;;;;8.50;5.20;;;;;;;;;;10335698;28;20084;-59
2023/07/06 19:52:43;;;;;;;7.80;4.60;;;;;;;;;;10331417;28;20083;-59
2023/07/06 19:57:41;;;;;;;8.75;5.38;;;;;;;;;;10336187;28;20075;-59
2023/07/06 20:02:43;;;;;;;13.85;6.93;;;;;;;;;;10334285;28;20064;-60
2023/07/06 20:07:43;;;;;;;12.23;5.82;;;;;;;;;;10332860;28;20820;-61
2023/07/06 20:12:41;;;;;;;11.70;7.22;;;;;;;;;;10337757;28;20072;-59
2023/07/06 20:17:41;;;;;;;7.68;5.10;;;;;;;;;;10327466;28;20072;-59
2023/07/06 20:22:39;;;;;;;9.65;5.55;;;;;;;;;;10331098;28;20493;-60
2023/07/06 20:27:39;;;;;;;7.35;5.55;;;;;;;;;;10333235;28;20080;-60
2023/07/06 20:32:37;;;;;;;5.25;4.72;;;;;;;;;;10336960;28;20076;-61
2023/07/06 20:37:35;;;;;;;10.10;6.00;;;;;;;;;;10338684;28;20070;-59
2023/07/06 20:42:34;;;;;;;9.93;5.53;;;;;;;;;;10339200;28;20067;-58
2023/07/06 20:47:33;;;;;;;9.93;5.93;;;;;;;;;;10338880;28;20080;-60
2023/07/06 20:52:31;;;;;;;7.35;4.97;;;;;;;;;;10336180;28;20071;-60
2023/07/06 20:57:30;;;;;;;11.90;5.30;;;;;;;;;;10345189;28;20466;-60
2023/07/06 21:02:28;;;;;;;6.38;5.35;;;;;;;;;;10340205;28;20113;-60
2023/07/06 21:07:27;;;;;;;5.60;4.70;;;;;;;;;;10338484;28;20083;-59
2023/07/06 21:12:26;;;;;;;5.65;4.50;;;;;;;;;;10335551;28;20071;-59
2023/07/06 21:17:24;;;;;;;6.32;4.10;;;;;;;;;;10341650;28;20064;-59
2023/07/06 21:22:22;;;;;;;5.13;4.57;;;;;;;;;;10335007;28;20631;-59
2023/07/06 21:27:22;;;;;;;8.13;4.78;;;;;;;;;;10333868;28;20181;-60
2023/07/06 21:32:20;;;;;;;8.35;5.32;;;;;;;;;;10335720;28;20075;-59
2023/07/06 21:37:18;;;;;;;7.07;5.30;;;;;;;;;;10336660;28;20064;-60
2023/07/06 21:42:17;;;;;;;9.43;4.75;;;;;;;;;;10335965;28;20083;-59
2023/07/06 21:47:16;;;;;;;13.27;5.20;;;;;;;;;;10331755;28;20087;-59
2023/07/06 21:52:14;;;;;;;5.13;4.63;;;;;;;;;;10334260;28;20117;-60
2023/07/06 21:57:13;;;;;;;7.07;4.10;;;;;;;;;;10333744;28;20076;-60
2023/07/06 22:02:11;;;;;;;5.55;5.05;;;;;;;;;;10331749;28;20079;-59
2023/07/06 22:07:10;;;;;;;6.80;4.90;;;;;;;;;;10331983;28;20497;-59
2023/07/06 22:12:09;;;;;;;8.68;4.47;;;;;;;;;;10337260;28;20072;-59
2023/07/06 22:17:07;;;;;;;7.13;4.53;;;;;;;;;;10334536;28;20443;-60
2023/07/06 22:22:05;;;;;;;6.82;5.25;;;;;;;;;;10332210;28;20484;-59
2023/07/06 22:27:05;;;;;;;7.57;4.88;;;;;;;;;;10333689;28;20083;-59
2023/07/06 22:32:04;;;;;;;7.97;4.82;;;;;;;;;;10332291;28;20087;-59
2023/07/06 22:37:02;;;;;;;8.52;5.15;;;;;;;;;;10333403;28;20476;-60
2023/07/06 22:42:00;;;;;;;11.35;6.85;;;;;;;;;;10333581;28;20078;-59
2023/07/06 22:47:00;;;;;;;18.85;12.32;;;;;;;;;;10332922;28;20098;-58
2023/07/06 22:52:00;;;;;;;23.98;17.27;;;;;;;;;;10325409;28;20087;-59
2023/07/06 22:56:59;;;;;;;16.83;6.25;;;;;;;;;;10330477;28;20628;-59
2023/07/06 23:01:57;;;;;;;13.18;9.38;;;;;;;;;;10331603;28;20064;-58
2023/07/06 23:06:57;;;;;;;6.55;5.25;;;;;;;;;;10332955;28;20067;-60
2023/07/06 23:11:55;;;;;;;7.13;5.28;;;;;;;;;;10330838;28;20080;-59
2023/07/06 23:16:53;;;;;;;7.93;5.10;;;;;;;;;;10330477;28;20068;-60
2023/07/06 23:21:55;;;;;;;9.80;4.65;;;;;;;;;;10332247;28;20064;-60
2023/07/06 23:26:55;;;;;;;13.45;5.28;;;;;;;;;;10329317;28;20090;-60
2023/07/06 23:31:53;;;;;;;7.38;5.00;;;;;;;;;;10332390;28;20067;-60
2023/07/06 23:36:55;;;;;;;12.55;6.47;;;;;;;;;;10336746;28;20076;-61
2023/07/06 23:41:54;;;;;;;7.05;5.57;;;;;;;;;;10330921;28;20449;-59
2023/07/06 23:46:53;;;;;;;13.85;6.05;;;;;;;;;;10332417;28;20485;-59
2023/07/06 23:51:51;;;;;;;8.27;5.17;;;;;;;;;;10331262;28;20082;-58
2023/07/06 23:56:49;;;;;;;9.10;5.43;;;;;;;;;;10330034;28;20094;-59
